Ufo 3 — IUNV — position and weather

sailwx.info

Track history (hours):
 
Tides and Currents Weather Stations Pressure Air Temp Water Temp Dewpoint Dewpoint Depression Visibility Wind Speed Wind Dir Waves Ship Positions

Ufo 3

Last reported at 2016-May-24 14:23 UTC. Time now 2016-May-25 05:17 UTC.
Position N 44°06' E 009°44'.

Length 28 m.

Type: Passenger vessel. MMSI: 247031600.

Date/timePositionNaut miles runAvg speedWind from/ knotsBaromVisibWave heightAir tempDewpointWater temp
2016-May-24 14:23N 44°06' E 009°44'5 6.5
2016-May-24 13:33N 44°03' E 009°50'0 0.0
2016-May-24 12:33N 44°03' E 009°50'0 0.0
2016-May-24 11:34N 44°03' E 009°50'0 0.0
2016-May-24 10:33N 44°03' E 009°50'0 0.0
2016-May-24 09:33N 44°03' E 009°50'0 0.0
2016-May-22 16:34N 44°03' E 009°51'3 2.5
2016-May-22 15:33N 44°04' E 009°54'3 2.8
2016-May-22 14:34N 44°03' E 009°50'0 0.1
2016-May-22 08:33N 44°03' E 009°50'3 3.2
2016-May-22 07:33N 44°06' E 009°50'3 3.3
2016-May-22 06:33N 44°03' E 009°51'0 0.0
2016-May-22 05:33N 44°03' E 009°51'0 0.0
2016-May-21 16:18N 44°03' E 009°51'0 0.6
2016-May-21 15:33N 44°03' E 009°50'0 0.0
2016-May-21 14:33N 44°03' E 009°50'0 0.0
2016-May-21 13:33N 44°03' E 009°50'0 0.0
2016-May-21 12:33N 44°03' E 009°50'0 0.0
2016-May-21 11:33N 44°03' E 009°50'1 0.8
2016-May-21 10:33N 44°02' E 009°50'0 0.1
2016-May-21 09:33N 44°02' E 009°51'1 0.2
2016-May-21 04:33N 44°03' E 009°50'0 0.0
2016-May-20 16:17N 44°03' E 009°50'7 8.6
2016-May-20 15:29N 44°07' E 009°42'2 0.8
2016-May-20 12:33N 44°08' E 009°39'8 0.3
2016-May-19 10:20N 44°06' E 009°50'3 3.4
2016-May-19 09:33N 44°03' E 009°50'0 0.0
2016-May-19 08:33N 44°03' E 009°50'2 2.3
2016-May-19 07:33N 44°05' E 009°51'3 0.2
2016-May-18 15:33N 44°05' E 009°54'3 3.0
2016-May-18 14:33N 44°03' E 009°51'0 0.3
2016-May-18 13:33N 44°03' E 009°50'0 0.1
2016-May-18 12:33N 44°03' E 009°50'0 0.1
2016-May-18 11:33N 44°03' E 009°50'1 0.8
2016-May-18 10:34N 44°03' E 009°51'1 0.8
2016-May-18 09:33N 44°03' E 009°50'0 0.0
2016-May-18 08:33N 44°03' E 009°50'3 3.4
2016-May-18 07:33N 44°04' E 009°54'3 0.2
2016-May-17 15:25N 44°03' E 009°51'10 7.3
2016-May-17 14:04N 44°09' E 009°39'4 1.6
2016-May-17 11:33N 44°06' E 009°44'6 5.8
2016-May-17 10:33N 44°03' E 009°51'3 3.0
2016-May-17 09:33N 44°06' E 009°50'0 0.0
2016-May-17 08:33N 44°06' E 009°50'3 0.2
2016-May-16 16:34N 44°03' E 009°49'1 0.1
2016-May-16 08:33N 44°03' E 009°50'  
Track history (hours):
 
Tides and Currents Weather Stations Pressure Air Temp Water Temp Dewpoint Dewpoint Depression Visibility Wind Speed Wind Dir Waves Ship Positions

Ufo 3

Last reported at 2016-May-24 14:23 UTC. Time now 2016-May-25 05:17 UTC.
Position N 44°06' E 009°44'.

Length 28 m.

Type: Passenger vessel. MMSI: 247031600.

Date/timePositionNaut miles runAvg speedWind from/ knotsBaromVisibWave heightAir tempDewpointWater temp
2016-May-24 14:23N 44°06' E 009°44'5 6.5
2016-May-24 13:33N 44°03' E 009°50'0 0.0
2016-May-24 12:33N 44°03' E 009°50'0 0.0
2016-May-24 11:34N 44°03' E 009°50'0 0.0
2016-May-24 10:33N 44°03' E 009°50'0 0.0
2016-May-24 09:33N 44°03' E 009°50'0 0.0
2016-May-22 16:34N 44°03' E 009°51'3 2.5
2016-May-22 15:33N 44°04' E 009°54'3 2.8
2016-May-22 14:34N 44°03' E 009°50'0 0.1
2016-May-22 08:33N 44°03' E 009°50'3 3.2
2016-May-22 07:33N 44°06' E 009°50'3 3.3
2016-May-22 06:33N 44°03' E 009°51'0 0.0
2016-May-22 05:33N 44°03' E 009°51'0 0.0
2016-May-21 16:18N 44°03' E 009°51'0 0.6
2016-May-21 15:33N 44°03' E 009°50'0 0.0
2016-May-21 14:33N 44°03' E 009°50'0 0.0
2016-May-21 13:33N 44°03' E 009°50'0 0.0
2016-May-21 12:33N 44°03' E 009°50'0 0.0
2016-May-21 11:33N 44°03' E 009°50'1 0.8
2016-May-21 10:33N 44°02' E 009°50'0 0.1
2016-May-21 09:33N 44°02' E 009°51'1 0.2
2016-May-21 04:33N 44°03' E 009°50'0 0.0
2016-May-20 16:17N 44°03' E 009°50'7 8.6
2016-May-20 15:29N 44°07' E 009°42'2 0.8
2016-May-20 12:33N 44°08' E 009°39'8 0.3
2016-May-19 10:20N 44°06' E 009°50'3 3.4
2016-May-19 09:33N 44°03' E 009°50'0 0.0
2016-May-19 08:33N 44°03' E 009°50'2 2.3
2016-May-19 07:33N 44°05' E 009°51'3 0.2
2016-May-18 15:33N 44°05' E 009°54'3 3.0
2016-May-18 14:33N 44°03' E 009°51'0 0.3
2016-May-18 13:33N 44°03' E 009°50'0 0.1
2016-May-18 12:33N 44°03' E 009°50'0 0.1
2016-May-18 11:33N 44°03' E 009°50'1 0.8
2016-May-18 10:34N 44°03' E 009°51'1 0.8
2016-May-18 09:33N 44°03' E 009°50'0 0.0
2016-May-18 08:33N 44°03' E 009°50'3 3.4
2016-May-18 07:33N 44°04' E 009°54'3 0.2
2016-May-17 15:25N 44°03' E 009°51'10 7.3
2016-May-17 14:04N 44°09' E 009°39'4 1.6
2016-May-17 11:33N 44°06' E 009°44'6 5.8
2016-May-17 10:33N 44°03' E 009°51'3 3.0
2016-May-17 09:33N 44°06' E 009°50'0 0.0
2016-May-17 08:33N 44°06' E 009°50'3 0.2
2016-May-16 16:34N 44°03' E 009°49'1 0.1
2016-May-16 08:33N 44°03' E 009°50'  

Dump ship's entire track history